createdAt,value
2018-07-28T00:00:16.731Z,0.00
2018-07-28T00:01:16.686Z,0.00
2018-07-28T00:02:16.757Z,0.00
2018-07-28T00:03:16.635Z,0.00
2018-07-28T00:04:16.647Z,0.00
2018-07-28T00:05:16.623Z,0.00
2018-07-28T00:06:17.685Z,0.00
2018-07-28T00:07:16.667Z,0.00
2018-07-28T00:08:17.914Z,0.00
2018-07-28T00:09:16.829Z,0.00
2018-07-28T00:10:16.888Z,0.00
2018-07-28T00:11:16.502Z,0.00
2018-07-28T00:12:16.499Z,0.00
2018-07-28T00:13:16.455Z,0.00
2018-07-28T00:14:16.508Z,0.00
2018-07-28T00:15:16.430Z,0.00
2018-07-28T00:16:17.475Z,0.00
2018-07-28T00:17:16.412Z,0.00
2018-07-28T00:18:17.473Z,0.00
2018-07-28T00:19:16.347Z,0.00
2018-07-28T00:20:16.368Z,0.00
2018-07-28T00:21:16.355Z,0.00
2018-07-28T00:23:02.347Z,0.00
2018-07-28T00:24:02.350Z,0.00
2018-07-28T00:25:02.268Z,0.00
2018-07-28T00:26:02.246Z,0.00
2018-07-28T00:27:02.273Z,0.00
2018-07-28T00:28:02.217Z,0.00
2018-07-28T00:29:02.281Z,0.00
2018-07-28T00:30:02.179Z,0.00
2018-07-28T00:31:02.187Z,0.00
2018-07-28T00:32:02.133Z,0.00
2018-07-28T00:33:02.201Z,0.00
2018-07-28T00:34:02.110Z,0.00
2018-07-28T00:35:02.107Z,0.00
2018-07-28T00:36:02.075Z,0.00
2018-07-28T00:37:02.120Z,0.00
2018-07-28T00:38:02.017Z,0.00
2018-07-28T00:39:02.034Z,0.00
2018-07-28T00:40:01.991Z,0.00
2018-07-28T00:41:02.045Z,0.00
2018-07-28T00:42:01.944Z,0.00
2018-07-28T00:43:02.975Z,0.00
2018-07-28T00:44:01.916Z,0.00
2018-07-28T00:45:01.976Z,0.00
2018-07-28T00:46:01.875Z,0.00
2018-07-28T00:47:01.896Z,0.00
2018-07-28T00:48:01.852Z,0.00
2018-07-28T00:49:01.893Z,0.00
2018-07-28T00:50:01.797Z,0.00
2018-07-28T00:51:01.804Z,0.00
2018-07-28T00:52:01.759Z,0.00
2018-07-28T00:53:02.129Z,0.00
2018-07-28T00:54:01.719Z,0.00
2018-07-28T00:55:01.727Z,0.00
2018-07-28T00:56:01.679Z,0.00
2018-07-28T00:57:01.740Z,0.00
2018-07-28T00:58:01.651Z,0.00
2018-07-28T00:59:01.956Z,0.00
2018-07-28T01:00:01.610Z,0.00
2018-07-28T01:01:01.680Z,0.00
2018-07-28T01:02:01.680Z,0.00
2018-07-28T01:03:01.783Z,0.00
2018-07-28T01:04:01.796Z,0.00
2018-07-28T01:05:02.613Z,0.00
2018-07-28T01:06:01.498Z,0.00
2018-07-28T01:07:01.495Z,0.00
2018-07-28T01:08:01.451Z,0.00
2018-07-28T01:09:01.508Z,0.00
2018-07-28T01:10:01.415Z,0.00
2018-07-28T01:11:01.411Z,0.00
2018-07-28T01:12:01.388Z,0.00
2018-07-28T01:13:01.368Z,0.00
2018-07-28T01:14:01.442Z,0.00
2018-07-28T01:15:01.323Z,0.00
2018-07-28T01:16:01.353Z,0.00
2018-07-28T01:17:01.307Z,0.00
2018-07-28T01:18:01.360Z,0.00
2018-07-28T01:19:01.240Z,0.00
2018-07-28T01:20:01.283Z,0.00
2018-07-28T01:21:01.228Z,0.00
2018-07-28T01:22:01.315Z,0.00
2018-07-28T01:23:01.173Z,0.00
2018-07-28T01:24:01.198Z,0.00
2018-07-28T01:25:01.140Z,0.00
2018-07-28T01:26:01.215Z,0.00
2018-07-28T01:27:01.088Z,0.00
2018-07-28T01:28:01.121Z,0.00
2018-07-28T01:29:01.070Z,0.00
2018-07-28T01:30:01.141Z,0.00
2018-07-28T01:31:01.011Z,0.00
2018-07-28T01:32:01.045Z,0.00
2018-07-28T01:33:00.988Z,0.00
2018-07-28T01:34:01.064Z,0.00
2018-07-28T01:35:00.955Z,0.00
2018-07-28T01:36:02.002Z,0.00
2018-07-28T01:37:00.913Z,0.00
2018-07-28T01:38:00.983Z,0.00
2018-07-28T01:39:00.860Z,0.00
2018-07-28T01:40:01.935Z,0.00
2018-07-28T01:41:00.848Z,0.00
2018-07-28T01:42:01.851Z,0.00
2018-07-28T01:43:00.847Z,0.00
2018-07-28T01:44:00.839Z,0.00
2018-07-28T01:45:00.771Z,0.00
2018-07-28T01:46:00.839Z,0.00
2018-07-28T01:47:00.724Z,0.00
2018-07-28T01:48:00.747Z,0.00
2018-07-28T01:49:00.684Z,0.00
2018-07-28T01:50:00.761Z,0.00
2018-07-28T01:51:00.629Z,0.00
2018-07-28T01:52:00.676Z,0.00
2018-07-28T01:53:00.615Z,0.00
2018-07-28T01:54:00.685Z,0.00
2018-07-28T01:55:00.556Z,0.00
2018-07-28T01:56:00.585Z,0.00
2018-07-28T01:57:00.517Z,0.00
2018-07-28T01:58:00.612Z,0.00
2018-07-28T01:59:00.483Z,0.00
2018-07-28T02:00:00.474Z,0.00
2018-07-28T02:01:00.444Z,0.00
2018-07-28T02:02:01.543Z,0.00
2018-07-28T02:03:00.404Z,0.00
2018-07-28T02:04:01.461Z,0.00
2018-07-28T02:05:00.362Z,0.00
2018-07-28T02:06:01.385Z,0.00
2018-07-28T02:07:00.340Z,0.00
2018-07-28T02:08:00.361Z,0.00
2018-07-28T02:09:00.291Z,0.00
2018-07-28T02:10:01.293Z,0.00
2018-07-28T02:11:00.258Z,0.00
2018-07-28T02:12:00.282Z,0.00
2018-07-28T02:13:00.212Z,0.00
2018-07-28T02:14:00.292Z,0.00
2018-07-28T02:15:00.175Z,0.00
2018-07-28T02:16:00.215Z,0.00
2018-07-28T02:17:00.155Z,0.00
2018-07-28T02:18:00.213Z,0.00
2018-07-28T02:19:00.101Z,0.00
2018-07-28T02:20:00.128Z,0.00
2018-07-28T02:21:00.109Z,0.00
2018-07-28T02:22:00.137Z,0.00
2018-07-28T02:23:00.017Z,0.00
2018-07-28T02:24:00.055Z,0.00
2018-07-28T02:24:59.981Z,0.00
2018-07-28T02:26:00.062Z,0.00
2018-07-28T02:26:59.938Z,0.00
2018-07-28T02:27:59.970Z,0.00
2018-07-28T02:28:59.919Z,0.00
2018-07-28T02:30:00.007Z,0.00
2018-07-28T02:30:59.863Z,0.00
2018-07-28T02:31:59.958Z,0.00
2018-07-28T02:32:59.823Z,0.00
2018-07-28T02:33:59.919Z,0.00
2018-07-28T02:34:59.789Z,0.00
2018-07-28T02:35:59.828Z,0.00
2018-07-28T02:36:59.748Z,0.00
2018-07-28T02:37:59.836Z,0.00
2018-07-28T02:38:59.718Z,0.00
2018-07-28T02:39:59.773Z,0.00
2018-07-28T02:40:59.670Z,0.00
2018-07-28T02:41:59.753Z,0.00
2018-07-28T02:42:59.629Z,0.00
2018-07-28T02:43:59.669Z,0.00
2018-07-28T02:44:59.895Z,0.00
2018-07-28T02:45:59.597Z,0.00
2018-07-28T02:46:59.609Z,0.00
2018-07-28T02:47:59.613Z,0.00
2018-07-28T02:48:59.548Z,0.00
2018-07-28T02:49:59.523Z,0.00
2018-07-28T02:50:59.508Z,0.00
2018-07-28T02:51:59.536Z,0.00
2018-07-28T02:52:59.522Z,0.00
2018-07-28T02:54:00.677Z,0.00
2018-07-28T02:54:59.671Z,0.00
2018-07-28T02:56:00.492Z,0.00
2018-07-28T02:56:59.365Z,0.00
2018-07-28T02:57:59.384Z,0.00
2018-07-28T02:58:59.318Z,0.00
2018-07-28T02:59:59.394Z,0.00
2018-07-28T03:00:59.279Z,0.00
2018-07-28T03:02:00.353Z,0.00
2018-07-28T03:02:59.242Z,0.00
2018-07-28T03:03:59.362Z,0.00
2018-07-28T03:04:59.338Z,0.00
2018-07-28T03:05:59.245Z,0.00
2018-07-28T03:06:59.198Z,4.00
2018-07-28T03:08:00.176Z,4.00
2018-07-28T03:08:59.130Z,0.00
2018-07-28T03:09:59.161Z,0.00
2018-07-28T03:10:59.093Z,4.00
2018-07-28T03:11:59.219Z,0.00
2018-07-28T03:12:59.096Z,4.00
2018-07-28T03:13:59.120Z,0.00
2018-07-28T03:14:59.030Z,4.00
2018-07-28T03:15:59.128Z,4.00
2018-07-28T03:16:58.975Z,8.00
2018-07-28T03:17:58.998Z,4.00
2018-07-28T03:18:58.924Z,4.00
2018-07-28T03:19:59.030Z,4.00
2018-07-28T03:20:58.888Z,8.00
2018-07-28T03:21:59.970Z,8.00
2018-07-28T03:22:58.872Z,8.00
2018-07-28T03:23:58.942Z,12.00
2018-07-28T03:24:58.808Z,16.00
2018-07-28T03:25:58.852Z,12.00
2018-07-28T03:26:58.767Z,16.00
2018-07-28T03:27:59.796Z,16.00
2018-07-28T03:28:58.753Z,20.00
2018-07-28T03:29:58.712Z,20.00
2018-07-28T03:31:00.539Z,28.00
2018-07-28T03:31:58.704Z,32.00
2018-07-28T03:32:58.652Z,32.00
2018-07-28T03:33:58.709Z,36.00
2018-07-28T03:34:58.617Z,40.00
2018-07-28T03:35:58.685Z,40.00
2018-07-28T03:36:58.580Z,48.00
2018-07-28T03:37:58.600Z,52.00
2018-07-28T03:38:58.547Z,56.00
2018-07-28T03:39:58.511Z,60.00
2018-07-28T03:40:58.501Z,68.00
2018-07-28T03:42:45.221Z,80.00
2018-07-28T03:43:45.163Z,84.00
2018-07-28T03:45:39.602Z,92.00
2018-07-28T03:46:39.556Z,104.00
2018-07-28T03:48:33.971Z,112.00
2018-07-28T03:49:33.944Z,120.00
2018-07-28T03:50:33.945Z,132.00
2018-07-28T03:51:33.908Z,136.00
2018-07-28T03:52:33.974Z,144.00
2018-07-28T03:53:33.852Z,156.00
2018-07-28T03:54:33.854Z,160.00
2018-07-28T03:55:33.817Z,168.00
2018-07-28T03:56:33.815Z,176.00
2018-07-28T03:57:34.866Z,184.00
2018-07-28T03:58:33.761Z,196.00
2018-07-28T03:59:33.746Z,204.00
2018-07-28T04:00:34.780Z,212.00
2018-07-28T04:01:33.704Z,220.00
2018-07-28T04:02:33.763Z,228.00
2018-07-28T04:03:33.667Z,236.00
2018-07-28T04:04:33.681Z,248.00
2018-07-28T04:05:33.642Z,256.00
2018-07-28T04:06:33.603Z,268.00
2018-07-28T04:07:34.625Z,280.00
2018-07-28T04:08:33.560Z,288.00
2018-07-28T04:09:33.551Z,300.00
2018-07-28T04:10:33.528Z,312.00
2018-07-28T04:11:33.527Z,320.00
2018-07-28T04:12:33.481Z,336.00
2018-07-28T04:13:33.559Z,340.00
2018-07-28T04:14:33.441Z,352.00
2018-07-28T04:15:33.411Z,364.00
2018-07-28T04:16:33.401Z,376.00
2018-07-28T04:17:34.491Z,388.00
2018-07-28T04:18:33.364Z,396.00
2018-07-28T04:19:34.398Z,412.00
2018-07-28T04:20:33.319Z,432.00
2018-07-28T04:21:33.309Z,456.00
2018-07-28T04:22:33.295Z,488.00
2018-07-28T04:23:33.262Z,516.00
2018-07-28T04:24:33.247Z,544.00
2018-07-28T04:25:33.223Z,568.00
2018-07-28T04:26:33.198Z,600.00
2018-07-28T04:27:33.178Z,624.00
2018-07-28T04:28:33.258Z,648.00
2018-07-28T04:29:33.250Z,668.00
2018-07-28T04:30:33.116Z,688.00
2018-07-28T04:31:34.173Z,708.00
2018-07-28T04:32:33.078Z,728.00
2018-07-28T04:33:33.059Z,752.00
2018-07-28T04:34:33.036Z,780.00
2018-07-28T04:35:33.016Z,804.00
2018-07-28T04:36:33.074Z,828.00
2018-07-28T04:37:32.975Z,848.00
2018-07-28T04:38:32.965Z,864.00
2018-07-28T04:39:32.964Z,880.00
2018-07-28T04:40:32.914Z,892.00
2018-07-28T04:41:32.918Z,748.00
2018-07-28T04:42:32.875Z,904.00
2018-07-28T04:43:32.852Z,908.00
2018-07-28T04:44:32.850Z,904.00
2018-07-28T04:45:32.972Z,908.00
2018-07-28T04:46:32.797Z,912.00
2018-07-28T04:47:32.780Z,916.00
2018-07-28T04:48:32.852Z,912.00
2018-07-28T04:49:32.761Z,904.00
2018-07-28T04:50:32.725Z,904.00
2018-07-28T04:51:32.699Z,908.00
2018-07-28T04:52:32.677Z,908.00
2018-07-28T04:53:32.711Z,908.00
2018-07-28T04:54:32.716Z,912.00
2018-07-28T04:55:32.621Z,916.00
2018-07-28T04:56:32.599Z,932.00
2018-07-28T04:57:32.596Z,976.00
2018-07-28T04:58:32.554Z,1028.00
2018-07-28T04:59:32.560Z,1064.00
2018-07-28T05:00:32.518Z,1092.00
2018-07-28T05:01:32.504Z,1108.00
2018-07-28T05:02:32.500Z,1112.00
2018-07-28T05:03:32.543Z,1124.00
2018-07-28T05:04:32.446Z,1168.00
2018-07-28T05:05:32.415Z,1192.00
2018-07-28T05:06:32.463Z,1220.00
2018-07-28T05:07:32.470Z,1232.00
2018-07-28T05:08:32.354Z,1256.00
2018-07-28T05:09:32.398Z,1300.00
2018-07-28T05:10:32.332Z,1344.00
2018-07-28T05:11:32.337Z,1360.00
2018-07-28T05:12:32.323Z,1380.00
2018-07-28T05:13:32.281Z,1396.00
2018-07-28T05:14:32.336Z,1416.00
2018-07-28T05:15:32.214Z,1448.00
2018-07-28T05:16:32.233Z,1496.00
2018-07-28T05:17:32.182Z,1580.00
2018-07-28T05:18:32.168Z,1756.00
2018-07-28T05:19:32.270Z,1844.00
2018-07-28T05:21:17.774Z,1820.00
2018-07-28T05:22:17.664Z,1772.00
2018-07-28T05:23:17.640Z,1744.00
2018-07-28T05:24:17.645Z,1744.00
2018-07-28T05:25:17.601Z,1768.00
2018-07-28T05:26:17.577Z,1804.00
2018-07-28T05:27:17.566Z,1844.00
2018-07-28T05:28:17.542Z,1880.00
2018-07-28T05:29:17.522Z,1908.00
2018-07-28T05:30:17.511Z,1924.00
2018-07-28T05:31:17.485Z,1924.00
2018-07-28T05:32:17.467Z,1924.00
2018-07-28T05:33:17.441Z,1932.00
2018-07-28T05:34:17.427Z,1948.00
2018-07-28T05:35:17.481Z,1960.00
2018-07-28T05:36:17.375Z,1972.00
2018-07-28T05:37:17.364Z,1980.00
2018-07-28T05:38:17.348Z,1980.00
2018-07-28T05:39:17.412Z,1988.00
2018-07-28T05:40:17.314Z,1996.00
2018-07-28T05:41:17.328Z,2020.00
2018-07-28T05:42:17.264Z,2040.00
2018-07-28T05:43:18.365Z,2060.00
2018-07-28T05:44:17.223Z,2060.00
2018-07-28T05:45:17.290Z,2068.00
2018-07-28T05:46:17.185Z,2064.00
2018-07-28T05:47:17.180Z,2068.00
2018-07-28T05:48:17.170Z,2068.00
2018-07-28T05:49:17.133Z,2072.00
2018-07-28T05:50:17.096Z,2084.00
2018-07-28T05:51:17.091Z,2092.00
2018-07-28T05:52:17.062Z,2088.00
2018-07-28T05:53:17.044Z,2084.00
2018-07-28T05:54:17.143Z,2076.00
2018-07-28T05:55:17.000Z,2076.00
2018-07-28T05:56:16.974Z,2080.00
2018-07-28T05:57:16.956Z,2088.00
2018-07-28T05:58:16.950Z,2116.00
2018-07-28T05:59:16.930Z,2116.00
2018-07-28T06:00:16.911Z,2112.00
2018-07-28T06:01:16.878Z,2120.00
2018-07-28T06:02:16.916Z,2124.00
2018-07-28T06:03:16.835Z,2120.00
2018-07-28T06:04:16.810Z,2128.00
2018-07-28T06:05:16.795Z,2132.00
2018-07-28T06:06:16.772Z,2148.00
2018-07-28T06:07:16.780Z,2164.00
2018-07-28T06:08:16.744Z,2172.00
2018-07-28T06:09:16.801Z,2172.00
2018-07-28T06:10:16.707Z,2180.00
2018-07-28T06:11:16.720Z,2188.00
2018-07-28T06:12:16.649Z,2204.00
2018-07-28T06:13:17.758Z,2216.00
2018-07-28T06:14:16.636Z,2232.00
2018-07-28T06:15:16.630Z,2244.00
2018-07-28T06:16:16.589Z,2252.00
2018-07-28T06:17:16.667Z,2264.00
2018-07-28T06:18:16.541Z,2272.00
2018-07-28T06:19:17.514Z,2284.00
2018-07-28T06:20:16.515Z,2296.00
2018-07-28T06:21:16.584Z,2304.00
2018-07-28T06:22:16.454Z,2308.00
2018-07-28T06:23:16.477Z,2312.00
2018-07-28T06:24:16.405Z,2328.00
2018-07-28T06:25:16.495Z,2332.00
2018-07-28T06:26:16.453Z,2340.00
2018-07-28T06:28:06.450Z,2356.00
2018-07-28T06:29:06.397Z,2384.00
2018-07-28T06:30:06.386Z,2392.00
2018-07-28T06:31:06.357Z,2408.00
2018-07-28T06:32:06.402Z,2408.00
2018-07-28T06:33:06.320Z,2416.00
2018-07-28T06:34:06.310Z,2428.00
2018-07-28T06:35:06.283Z,2448.00
2018-07-28T06:36:06.301Z,2488.00
2018-07-28T06:37:06.230Z,2544.00
2018-07-28T06:38:06.336Z,2596.00
2018-07-28T06:39:06.206Z,2672.00
2018-07-28T06:40:07.288Z,2736.00
2018-07-28T06:41:06.162Z,2704.00
2018-07-28T06:42:06.214Z,2888.00
2018-07-28T06:43:06.113Z,3500.00
2018-07-28T06:44:06.143Z,4164.00
2018-07-28T06:45:06.073Z,3916.00
2018-07-28T06:46:06.148Z,3444.00
2018-07-28T06:47:06.046Z,2824.00
2018-07-28T06:48:06.068Z,2820.00
2018-07-28T06:49:05.990Z,3024.00
2018-07-28T06:50:06.083Z,3504.00
2018-07-28T06:51:05.954Z,4024.00
2018-07-28T06:52:05.992Z,3436.00
2018-07-28T06:53:05.929Z,3476.00
2018-07-28T06:54:05.995Z,3492.00
2018-07-28T06:55:05.873Z,3784.00
2018-07-28T06:56:05.917Z,4124.00
2018-07-28T06:57:05.823Z,4600.00
2018-07-28T06:58:05.919Z,5040.00
2018-07-28T06:59:05.796Z,5604.00
2018-07-28T07:00:05.835Z,6328.00
2018-07-28T07:01:05.751Z,6344.00
2018-07-28T07:02:05.850Z,6152.00
2018-07-28T07:03:05.716Z,5848.00
2018-07-28T07:04:05.775Z,5636.00
2018-07-28T07:05:05.698Z,5224.00
2018-07-28T07:06:05.654Z,4780.00
2018-07-28T07:07:05.645Z,4424.00
2018-07-28T07:08:05.700Z,4288.00
2018-07-28T07:09:05.601Z,4320.00
2018-07-28T07:10:05.613Z,4380.00
2018-07-28T07:11:05.574Z,4344.00
2018-07-28T07:12:05.614Z,4100.00
2018-07-28T07:13:05.523Z,3816.00
2018-07-28T07:14:05.633Z,3832.00
2018-07-28T07:15:05.536Z,3684.00
2018-07-28T07:16:05.550Z,3896.00
2018-07-28T07:17:05.494Z,3872.00
2018-07-28T07:18:05.458Z,4076.00
2018-07-28T07:19:05.528Z,4888.00
2018-07-28T07:20:05.464Z,5380.00
2018-07-28T07:21:05.370Z,5720.00
2018-07-28T07:22:05.377Z,5744.00
2018-07-28T07:23:05.344Z,5604.00
2018-07-28T07:24:05.392Z,6000.00
2018-07-28T07:25:05.281Z,6484.00
2018-07-28T07:26:05.299Z,6424.00
2018-07-28T07:27:05.234Z,6024.00
2018-07-28T07:28:05.228Z,5440.00
2018-07-28T07:29:05.199Z,4748.00
2018-07-28T07:30:05.275Z,5508.00
2018-07-28T07:31:51.096Z,6332.00
2018-07-28T07:32:51.055Z,5312.00
2018-07-28T07:33:51.036Z,4868.00
2018-07-28T07:34:51.080Z,4860.00
2018-07-28T07:35:50.989Z,5164.00
2018-07-28T07:36:50.971Z,5992.00
2018-07-28T07:37:50.954Z,6528.00
2018-07-28T07:38:51.047Z,6608.00
2018-07-28T07:39:50.911Z,5892.00
2018-07-28T07:40:50.893Z,5624.00
2018-07-28T07:41:50.863Z,5488.00
2018-07-28T07:42:50.855Z,5268.00
2018-07-28T07:43:50.838Z,5184.00
2018-07-28T07:44:50.811Z,5564.00
2018-07-28T07:45:50.787Z,6128.00
2018-07-28T07:46:50.920Z,6976.00
2018-07-28T07:47:50.736Z,8024.00
2018-07-28T07:48:50.735Z,8572.00
2018-07-28T07:49:50.718Z,8740.00
2018-07-28T07:50:50.692Z,8612.00
2018-07-28T07:51:50.664Z,8508.00
2018-07-28T07:52:50.640Z,8368.00
2018-07-28T07:53:50.677Z,7828.00
2018-07-28T07:54:50.601Z,6976.00
2018-07-28T07:55:50.587Z,6588.00
2018-07-28T07:56:50.560Z,6488.00
2018-07-28T07:57:50.545Z,6352.00
2018-07-28T07:58:50.523Z,6132.00
2018-07-28T07:59:50.507Z,5928.00
2018-07-28T08:00:50.482Z,5772.00
2018-07-28T08:01:50.474Z,5660.00
2018-07-28T08:02:50.486Z,5620.00
2018-07-28T08:03:50.430Z,5592.00
2018-07-28T08:04:50.425Z,5544.00
2018-07-28T08:05:50.379Z,5672.00
2018-07-28T08:06:50.354Z,5900.00
2018-07-28T08:07:50.351Z,5996.00
2018-07-28T08:08:50.326Z,6208.00
2018-07-28T08:09:50.304Z,6332.00
2018-07-28T08:10:50.282Z,6304.00
2018-07-28T08:11:50.260Z,6152.00
2018-07-28T08:12:50.237Z,5856.00
2018-07-28T08:13:50.218Z,5284.00
2018-07-28T08:14:50.276Z,4600.00
2018-07-28T08:15:50.189Z,4008.00
2018-07-28T08:16:50.173Z,3656.00
2018-07-28T08:17:50.147Z,3536.00
2018-07-28T08:18:50.205Z,3344.00
2018-07-28T08:19:50.113Z,2960.00
2018-07-28T08:20:51.143Z,2748.00
2018-07-28T08:21:50.066Z,2680.00
2018-07-28T08:22:50.059Z,2616.00
2018-07-28T08:23:50.057Z,2512.00
2018-07-28T08:24:50.005Z,2432.00
2018-07-28T08:25:49.975Z,2376.00
2018-07-28T08:26:49.982Z,2200.00
2018-07-28T08:27:49.942Z,1936.00
2018-07-28T08:28:49.938Z,1612.00
2018-07-28T08:29:49.924Z,1392.00
2018-07-28T08:30:49.891Z,1320.00
2018-07-28T08:31:49.858Z,1344.00
2018-07-28T08:32:49.982Z,1380.00
2018-07-28T08:33:49.819Z,1404.00
2018-07-28T08:34:50.900Z,1372.00
2018-07-28T08:35:49.784Z,1396.00
2018-07-28T08:37:35.984Z,1444.00
2018-07-28T08:38:35.933Z,1440.00
2018-07-28T08:40:29.712Z,1560.00
2018-07-28T08:41:29.609Z,1724.00
2018-07-28T08:42:29.595Z,1912.00
2018-07-28T08:43:29.560Z,2020.00
2018-07-28T08:44:29.536Z,2188.00
2018-07-28T08:45:29.589Z,2308.00
2018-07-28T08:46:29.497Z,2352.00
2018-07-28T08:47:29.477Z,2412.00
2018-07-28T08:48:30.534Z,2680.00
2018-07-28T08:49:29.487Z,2932.00
2018-07-28T08:50:29.437Z,3184.00
2018-07-28T08:51:29.409Z,3400.00
2018-07-28T08:52:29.446Z,3504.00
2018-07-28T08:53:29.370Z,3720.00
2018-07-28T08:54:29.467Z,4012.00
2018-07-28T08:55:29.348Z,4312.00
2018-07-28T08:56:29.293Z,4368.00
2018-07-28T08:57:29.287Z,4072.00
2018-07-28T08:58:34.908Z,3804.00
2018-07-28T08:59:29.233Z,3716.00
2018-07-28T09:00:29.233Z,3700.00
2018-07-28T09:01:30.293Z,3732.00
2018-07-28T09:02:29.210Z,3632.00
2018-07-28T09:03:30.212Z,3532.00
2018-07-28T09:05:15.665Z,3892.00
2018-07-28T09:06:15.577Z,4472.00
2018-07-28T09:07:15.507Z,4644.00
2018-07-28T09:08:15.605Z,4340.00
2018-07-28T09:09:15.456Z,3828.00
2018-07-28T09:10:15.505Z,3744.00
2018-07-28T09:11:15.440Z,3896.00
2018-07-28T09:12:15.425Z,4148.00
2018-07-28T09:13:20.369Z,4448.00
2018-07-28T09:14:15.373Z,4504.00
2018-07-28T09:15:16.473Z,4428.00
2018-07-28T09:16:15.401Z,4612.00
2018-07-28T09:17:15.358Z,5044.00
2018-07-28T09:18:15.445Z,5380.00
2018-07-28T09:19:15.427Z,5392.00
2018-07-28T09:20:15.257Z,5056.00
2018-07-28T09:21:15.260Z,4960.00
2018-07-28T09:22:15.276Z,5108.00
2018-07-28T09:23:15.318Z,5256.00
2018-07-28T09:24:15.204Z,5144.00
2018-07-28T09:25:15.145Z,4808.00
2018-07-28T09:26:15.197Z,4416.00
2018-07-28T09:27:15.107Z,4296.00
2018-07-28T09:28:15.215Z,4488.00
2018-07-28T09:29:15.066Z,4640.00
2018-07-28T09:30:15.126Z,4732.00
2018-07-28T09:31:15.023Z,4552.00
2018-07-28T09:32:16.057Z,4224.00
2018-07-28T09:33:14.981Z,4072.00
2018-07-28T09:34:15.044Z,3984.00
2018-07-28T09:35:14.971Z,3744.00
2018-07-28T09:36:14.979Z,3376.00
2018-07-28T09:37:14.911Z,3000.00
2018-07-28T09:38:14.958Z,2712.00
2018-07-28T09:39:14.859Z,2480.00
2018-07-28T09:40:15.919Z,2296.00
2018-07-28T09:41:14.869Z,2128.00
2018-07-28T09:42:14.813Z,2052.00
2018-07-28T09:43:14.798Z,1992.00
2018-07-28T09:44:15.856Z,1900.00
2018-07-28T09:45:14.786Z,1836.00
2018-07-28T09:46:14.775Z,1788.00
2018-07-28T09:47:14.709Z,1752.00
2018-07-28T09:48:14.682Z,1816.00
2018-07-28T09:49:14.667Z,2020.00
2018-07-28T09:50:14.640Z,2196.00
2018-07-28T09:51:14.660Z,2248.00
2018-07-28T09:53:01.342Z,3028.00
2018-07-28T09:54:01.327Z,3756.00
2018-07-28T09:55:01.472Z,4204.00
2018-07-28T09:56:01.265Z,4220.00
2018-07-28T09:57:01.284Z,3916.00
2018-07-28T09:58:01.225Z,3656.00
2018-07-28T09:59:01.182Z,3576.00
2018-07-28T10:00:01.181Z,3416.00
2018-07-28T10:01:17.791Z,3216.00
2018-07-28T10:02:01.158Z,2904.00
2018-07-28T10:03:12.779Z,2744.00
2018-07-28T10:04:01.095Z,2728.00
2018-07-28T10:05:01.118Z,2628.00
2018-07-28T10:06:01.048Z,2504.00
2018-07-28T10:07:01.035Z,2364.00
2018-07-28T10:08:01.021Z,2332.00
2018-07-28T10:09:01.046Z,2244.00
2018-07-28T10:10:00.977Z,2012.00
2018-07-28T10:11:03.007Z,1776.00
2018-07-28T10:12:00.941Z,1624.00
2018-07-28T10:13:11.829Z,1684.00
2018-07-28T10:14:01.099Z,1856.00
2018-07-28T10:15:01.184Z,2072.00
2018-07-28T10:16:01.047Z,2112.00
2018-07-28T10:17:02.281Z,2388.00
2018-07-28T10:18:01.103Z,2660.00
2018-07-28T10:23:40.424Z,4320.00
2018-07-28T10:24:33.289Z,4940.00
2018-07-28T10:25:33.559Z,5464.00
2018-07-28T10:26:33.595Z,5432.00
2018-07-28T10:27:33.511Z,5012.00
2018-07-28T10:28:38.208Z,4836.00
2018-07-28T10:29:33.371Z,4896.00
2018-07-28T10:30:33.551Z,4720.00
2018-07-28T10:31:33.327Z,4392.00
2018-07-28T10:32:35.481Z,4220.00
2018-07-28T10:33:33.408Z,4392.00
2018-07-28T10:44:04.635Z,5932.00
2018-07-28T10:45:04.597Z,5852.00
2018-07-28T10:46:04.673Z,5872.00
2018-07-28T10:47:04.547Z,5968.00
2018-07-28T10:48:09.982Z,5892.00
2018-07-28T10:49:04.400Z,5576.00
2018-07-28T10:50:10.934Z,5268.00
2018-07-28T10:51:04.394Z,5156.00
2018-07-28T10:52:10.013Z,5252.00
2018-07-28T10:53:04.463Z,5536.00
2018-07-28T10:54:04.496Z,5956.00
2018-07-28T10:55:04.382Z,6452.00
2018-07-28T10:56:09.161Z,6828.00
2018-07-28T10:57:04.357Z,6996.00
2018-07-28T10:58:26.451Z,7012.00
2018-07-28T10:59:04.417Z,7028.00
2018-07-28T11:00:25.058Z,7116.00
2018-07-28T11:01:04.265Z,7128.00
2018-07-28T11:02:06.179Z,7072.00
2018-07-28T11:10:46.946Z,7872.00
2018-07-28T11:11:45.537Z,8180.00
2018-07-28T11:12:45.569Z,8392.00
2018-07-28T11:13:45.463Z,8636.00
2018-07-28T11:14:45.584Z,8812.00
2018-07-28T11:15:45.519Z,9036.00
2018-07-28T11:16:45.602Z,8968.00
2018-07-28T11:17:45.471Z,8820.00
2018-07-28T11:18:45.572Z,8624.00
2018-07-28T11:19:45.432Z,8224.00
2018-07-28T11:20:45.524Z,7508.00
2018-07-28T11:21:45.397Z,6548.00
2018-07-28T11:22:45.435Z,5796.00
2018-07-28T11:23:45.366Z,5520.00
2018-07-28T11:24:45.342Z,6092.00
2018-07-28T11:25:45.306Z,6832.00
2018-07-28T11:26:45.360Z,7676.00
2018-07-28T11:27:45.521Z,8044.00
2018-07-28T11:28:45.270Z,7832.00
2018-07-28T11:29:45.240Z,7764.00
2018-07-28T11:30:45.330Z,7980.00
2018-07-28T11:31:45.217Z,7756.00
2018-07-28T11:32:45.327Z,7692.00
2018-07-28T11:33:45.040Z,7380.00
2018-07-28T11:34:45.204Z,6676.00
2018-07-28T11:35:45.009Z,6468.00
2018-07-28T11:36:45.117Z,6676.00
2018-07-28T11:37:45.364Z,6952.00
2018-07-28T11:38:45.112Z,7296.00
2018-07-28T11:39:45.185Z,7764.00
2018-07-28T11:40:45.093Z,8444.00
2018-07-28T11:41:45.098Z,9152.00
2018-07-28T11:42:45.085Z,9708.00
2018-07-28T11:43:44.948Z,9360.00
2018-07-28T11:44:44.957Z,9024.00
2018-07-28T11:45:44.973Z,8260.00
2018-07-28T11:46:44.989Z,7768.00
2018-07-28T11:47:44.862Z,7280.00
2018-07-28T11:48:44.894Z,6812.00
2018-07-28T11:49:44.749Z,6028.00
2018-07-28T11:50:44.912Z,4980.00
2018-07-28T11:51:44.708Z,4852.00
2018-07-28T11:52:44.804Z,5468.00
2018-07-28T11:53:44.646Z,5652.00
2018-07-28T11:54:44.827Z,5952.00
2018-07-28T11:55:44.709Z,6224.00
2018-07-28T11:56:44.731Z,6320.00
2018-07-28T11:57:44.567Z,6608.00
2018-07-28T11:58:44.754Z,7024.00
2018-07-28T11:59:44.520Z,6912.00
2018-07-28T12:00:44.658Z,7408.00
2018-07-28T12:01:44.591Z,7644.00
2018-07-28T12:02:44.570Z,7616.00
2018-07-28T12:03:44.436Z,7280.00
2018-07-28T12:04:44.582Z,6376.00
2018-07-28T12:05:44.499Z,5624.00
2018-07-28T12:06:44.488Z,5976.00
2018-07-28T12:07:44.452Z,6180.00
2018-07-28T12:08:44.499Z,6612.00
2018-07-28T12:09:44.341Z,7092.00
2018-07-28T12:10:44.316Z,7816.00
2018-07-28T12:11:44.628Z,7416.00
2018-07-28T12:12:44.426Z,7100.00
2018-07-28T12:13:44.268Z,6944.00
2018-07-28T12:14:44.339Z,6452.00
2018-07-28T12:16:34.624Z,6492.00
2018-07-28T12:17:34.653Z,4876.00
2018-07-28T12:18:34.855Z,3724.00
2018-07-28T12:19:34.925Z,3216.00
2018-07-28T12:20:34.728Z,2960.00
2018-07-28T12:21:34.901Z,2820.00
2018-07-28T12:22:34.772Z,2660.00
2018-07-28T12:23:34.747Z,2740.00
2018-07-28T12:24:34.778Z,2948.00
2018-07-28T12:25:34.763Z,3384.00
2018-07-28T12:26:34.593Z,3876.00
2018-07-28T12:27:34.662Z,4332.00
2018-07-28T12:28:34.677Z,4716.00
2018-07-28T12:29:34.890Z,4952.00
2018-07-28T12:30:34.618Z,4652.00
2018-07-28T12:31:34.621Z,4796.00
2018-07-28T12:32:34.583Z,5140.00
2018-07-28T12:33:34.528Z,5364.00
2018-07-28T12:34:34.473Z,5308.00
2018-07-28T12:35:34.437Z,5056.00
2018-07-28T12:36:34.502Z,4760.00
2018-07-28T12:37:34.598Z,4720.00
2018-07-28T12:38:34.462Z,4768.00
2018-07-28T12:39:34.480Z,4548.00
2018-07-28T12:40:34.425Z,4180.00
2018-07-28T12:41:34.379Z,3944.00
2018-07-28T12:42:34.268Z,3728.00
2018-07-28T12:43:34.410Z,3536.00
2018-07-28T12:44:34.233Z,3532.00
2018-07-28T12:45:34.322Z,3568.00
2018-07-28T12:46:34.228Z,3584.00
2018-07-28T12:47:34.174Z,4108.00
2018-07-28T12:48:34.344Z,4392.00
2018-07-28T12:49:34.190Z,4348.00
2018-07-28T12:50:34.279Z,4152.00
2018-07-28T12:51:34.186Z,3764.00
2018-07-28T12:52:34.283Z,3872.00
2018-07-28T12:54:21.003Z,3616.00
2018-07-28T12:55:20.868Z,3488.00
2018-07-28T12:56:21.023Z,3296.00
2018-07-28T12:57:21.141Z,3144.00
2018-07-28T12:58:20.764Z,3056.00
2018-07-28T12:59:20.832Z,3016.00